Time;durP1;ratioP1;P1;durP2;ratioP2;P2;SDS_P1;SDS_P2;PMS_P1;PMS_P2;Temp;Humidity;BMP_temperature;BMP_pressure;BME280_temperature;BME280_humidity;BME280_pressure;Samples;Min_cycle;Max_cycle;Signal;HPM_P1;HPM_P2
2021/10/18 00:01:03;;;;;;;16.40;11.63;;;;;;;-144.43;100.00;64487.81;4974198;28;20019;-52
2021/10/18 00:03:28;;;;;;;16.05;11.13;;;;;;;-144.43;100.00;64487.81;4974563;28;20101;-64
2021/10/18 00:05:53;;;;;;;16.70;11.20;;;;;;;-144.43;100.00;64487.81;4958539;28;20034;-53
2021/10/18 00:08:22;;;;;;;16.45;10.60;;;;;;;-144.43;100.00;64487.81;4974380;28;20030;-58
2021/10/18 00:10:47;;;;;;;13.45;9.70;;;;;;;-144.43;100.00;64487.81;4992405;28;20482;-57
2021/10/18 00:13:13;;;;;;;14.43;10.20;;;;;;;-144.43;100.00;64487.81;4975144;28;20030;-58
2021/10/18 00:15:45;;;;;;;16.48;10.05;;;;;;;-144.43;100.00;64487.81;4974497;28;20037;-57
2021/10/18 00:18:10;;;;;;;17.50;10.32;;;;;;;-144.43;100.00;64487.81;4991255;28;20030;-58
2021/10/18 00:20:36;;;;;;;15.10;9.77;;;;;;;-144.43;100.00;64487.81;4991403;28;20045;-57
2021/10/18 00:23:03;;;;;;;15.23;10.38;;;;;;;-144.43;100.00;64487.81;4974349;28;20122;-53
2021/10/18 00:25:31;;;;;;;16.92;10.98;;;;;;;-144.43;100.00;64487.81;4974193;28;20034;-56
2021/10/18 00:27:59;;;;;;;15.68;10.63;;;;;;;-144.43;100.00;64487.81;4973759;28;20050;-58
2021/10/18 00:30:28;;;;;;;16.65;10.50;;;;;;;-144.43;100.00;64487.81;5057838;23;20103;-60
2021/10/18 00:32:56;;;;;;;15.50;10.20;;;;;;;-144.43;100.00;64487.81;5033884;28;20029;-57
2021/10/18 00:35:21;;;;;;;16.58;10.88;;;;;;;-144.43;100.00;64487.81;5033346;28;20028;-61
2021/10/18 00:37:46;;;;;;;16.77;9.35;;;;;;;-144.43;100.00;64487.81;5051274;28;20032;-60
2021/10/18 00:40:12;;;;;;;14.25;9.55;;;;;;;-144.43;100.00;64487.81;5030522;28;20057;-61
2021/10/18 00:42:41;;;;;;;15.40;10.43;;;;;;;-144.43;100.00;64487.81;5030244;28;20056;-61
2021/10/18 00:45:10;;;;;;;14.38;9.32;;;;;;;-144.43;100.00;64487.81;5003940;28;20469;-61
2021/10/18 00:47:36;;;;;;;15.32;9.73;;;;;;;-144.43;100.00;64487.81;5027232;28;20021;-61
2021/10/18 00:50:14;;;;;;;13.90;9.27;;;;;;;-144.43;100.00;64487.81;5014135;28;20033;-61
2021/10/18 00:52:42;;;;;;;14.30;9.63;;;;;;;-144.43;100.00;64487.81;5031922;28;20033;-61
2021/10/18 00:55:12;;;;;;;12.77;8.63;;;;;;;-144.43;100.00;64487.81;5014235;28;20025;-61
2021/10/18 00:57:37;;;;;;;15.13;9.18;;;;;;;-144.43;100.00;64487.81;5017199;28;20032;-61
2021/10/18 01:00:05;;;;;;;13.57;8.88;;;;;;;-144.43;100.00;64487.81;5033801;28;20033;-58
2021/10/18 01:02:30;;;;;;;13.10;8.98;;;;;;;-144.43;100.00;64487.81;5017798;28;20108;-59
2021/10/18 01:04:56;;;;;;;13.95;8.82;;;;;;;-144.43;100.00;64487.81;5017142;28;20464;-58
2021/10/18 01:07:22;;;;;;;12.50;8.88;;;;;;;-144.43;100.00;64487.81;5034596;28;20037;-59
2021/10/18 01:09:47;;;;;;;11.38;8.13;;;;;;;-144.43;100.00;64487.81;5017262;28;20022;-59
2021/10/18 01:12:13;;;;;;;11.65;8.25;;;;;;;-144.43;100.00;64487.81;5017507;28;20041;-60
2021/10/18 01:14:38;;;;;;;12.32;8.25;;;;;;;-144.43;100.00;64487.81;5016930;28;20028;-59
2021/10/18 01:17:04;;;;;;;12.35;7.90;;;;;;;-144.43;100.00;64487.81;5034635;28;20022;-60
2021/10/18 01:19:29;;;;;;;12.05;7.70;;;;;;;-144.43;100.00;64487.81;5029989;28;20054;-58
2021/10/18 01:22:13;;;;;;;11.35;7.68;;;;;;;-144.43;100.00;64487.81;5004766;28;20029;-59
2021/10/18 01:24:41;;;;;;;12.20;7.60;;;;;;;-144.43;100.00;64487.81;5034788;28;20026;-59
2021/10/18 01:27:13;;;;;;;11.35;7.32;;;;;;;-144.43;100.00;64487.81;5033765;28;20507;-61
2021/10/18 01:29:41;;;;;;;11.27;7.20;;;;;;;-144.43;100.00;64487.81;5013044;28;20045;-60
2021/10/18 01:32:10;;;;;;;9.38;6.78;;;;;;;-144.43;100.00;64487.81;5013115;28;20030;-59
2021/10/18 01:34:35;;;;;;;9.43;6.70;;;;;;;-144.43;100.00;64487.81;5013070;28;20029;-61
2021/10/18 01:37:04;;;;;;;11.27;7.15;;;;;;;-144.43;100.00;64487.81;5013177;28;20029;-61
2021/10/18 01:39:31;;;;;;;11.40;7.57;;;;;;;-144.43;100.00;64487.81;4996637;28;20041;-61
2021/10/18 01:41:56;;;;;;;12.38;7.25;;;;;;;-144.43;100.00;64487.81;5013190;28;20032;-61
2021/10/18 01:44:25;;;;;;;9.30;6.75;;;;;;;-144.43;100.00;64487.81;5014202;28;20037;-61
2021/10/18 01:46:50;;;;;;;8.68;6.07;;;;;;;-144.43;100.00;64487.81;5020162;28;20022;-61
2021/10/18 01:49:16;;;;;;;10.40;6.50;;;;;;;-144.43;100.00;64487.81;5019606;28;20502;-61
2021/10/18 01:51:41;;;;;;;8.32;6.28;;;;;;;-144.43;100.00;64487.81;5014018;28;20034;-61
2021/10/18 01:54:07;;;;;;;10.80;6.90;;;;;;;-144.43;100.00;64487.81;5013926;28;20030;-61
2021/10/18 01:56:38;;;;;;;8.60;6.35;;;;;;;-144.43;100.00;64487.81;5024471;28;20056;-61
2021/10/18 01:59:10;;;;;;;10.48;6.53;;;;;;;-144.43;100.00;64487.81;5013150;28;20103;-60
2021/10/18 02:01:35;;;;;;;10.05;6.68;;;;;;;-144.43;100.00;64487.81;5013982;28;20029;-60
2021/10/18 02:04:03;;;;;;;9.93;6.60;;;;;;;-144.43;100.00;64487.81;5013546;28;20072;-61
2021/10/18 02:06:28;;;;;;;10.50;6.50;;;;;;;-144.43;100.00;64487.81;5013398;28;20108;-60
2021/10/18 02:08:54;;;;;;;8.93;6.07;;;;;;;-144.43;100.00;64487.81;5012714;28;20101;-60
2021/10/18 02:11:21;;;;;;;10.07;6.30;;;;;;;-144.43;100.00;64487.81;5012388;28;20034;-61
2021/10/18 02:13:47;;;;;;;9.05;6.50;;;;;;;-144.43;100.00;64487.81;5013617;28;20030;-62
2021/10/18 02:16:12;;;;;;;9.20;6.55;;;;;;;-144.43;100.00;64487.81;5013408;28;20061;-61
2021/10/18 02:18:47;;;;;;;9.05;6.35;;;;;;;-144.43;100.00;64487.81;5013288;28;20072;-60
2021/10/18 02:21:12;;;;;;;8.27;6.28;;;;;;;-144.43;100.00;64487.81;5036561;28;20095;-61
2021/10/18 02:23:42;;;;;;;9.27;6.28;;;;;;;-144.43;100.00;64487.81;5048525;28;20033;-59
2021/10/18 02:26:07;;;;;;;10.27;6.15;;;;;;;-144.43;100.00;64487.81;5048160;28;20025;-62
2021/10/18 02:28:33;;;;;;;10.50;6.57;;;;;;;-144.43;100.00;64487.81;5033113;28;20476;-62
2021/10/18 02:30:58;;;;;;;9.05;6.10;;;;;;;-144.43;100.00;64487.81;5051114;28;20053;-62
2021/10/18 02:33:23;;;;;;;10.27;6.43;;;;;;;-144.43;100.00;64487.81;5052888;28;20040;-61
2021/10/18 02:35:49;;;;;;;9.75;6.43;;;;;;;-144.43;100.00;64487.81;5051148;28;20029;-61
2021/10/18 02:38:14;;;;;;;12.35;6.20;;;;;;;-144.43;100.00;64487.81;5053215;28;20029;-62
2021/10/18 02:40:46;;;;;;;9.32;6.13;;;;;;;-144.43;100.00;64487.81;5034576;28;20024;-61
2021/10/18 02:43:28;;;;;;;11.65;6.53;;;;;;;-144.43;100.00;64487.81;5052627;28;20025;-62
2021/10/18 02:45:54;;;;;;;8.68;6.18;;;;;;;-144.43;100.00;64487.81;5052190;28;20021;-59
2021/10/18 02:48:19;;;;;;;11.65;6.57;;;;;;;-144.43;100.00;64487.81;5052467;28;20081;-62
2021/10/18 02:50:45;;;;;;;10.18;6.68;;;;;;;-144.43;100.00;64487.81;5017229;28;20109;-61
2021/10/18 02:53:10;;;;;;;9.50;6.15;;;;;;;-144.43;100.00;64487.81;5031282;28;20025;-61
2021/10/18 02:55:35;;;;;;;10.05;6.40;;;;;;;-144.43;100.00;64487.81;5031103;28;20030;-59
2021/10/18 02:58:01;;;;;;;9.85;6.25;;;;;;;-144.43;100.00;64487.81;5032196;28;20033;-62
2021/10/18 03:00:26;;;;;;;9.57;5.72;;;;;;;-144.43;100.00;64487.81;5014381;28;20108;-58
2021/10/18 03:02:51;;;;;;;9.15;6.20;;;;;;;-144.43;100.00;64487.81;5031304;28;20415;-60
2021/10/18 03:05:17;;;;;;;9.57;6.00;;;;;;;-144.43;100.00;64487.81;5032394;28;20480;-60
2021/10/18 03:07:43;;;;;;;9.88;5.88;;;;;;;-144.43;100.00;64487.81;5032063;28;20021;-60
2021/10/18 03:10:11;;;;;;;9.77;6.10;;;;;;;-144.43;100.00;64487.81;5014524;28;20029;-59
2021/10/18 03:12:37;;;;;;;9.15;6.40;;;;;;;-144.43;100.00;64487.81;5018050;28;20028;-58
2021/10/18 03:15:03;;;;;;;9.98;5.93;;;;;;;-144.43;100.00;64487.81;5034203;28;20021;-62
2021/10/18 03:17:29;;;;;;;9.70;6.78;;;;;;;-144.43;100.00;64487.81;5050746;28;20083;-62
2021/10/18 03:20:08;;;;;;;9.18;6.47;;;;;;;-144.43;100.00;64487.81;5051772;28;20056;-61
2021/10/18 03:22:34;;;;;;;10.23;6.70;;;;;;;-144.43;100.00;64487.81;5034249;28;20039;-61
2021/10/18 03:25:00;;;;;;;9.73;6.15;;;;;;;-144.43;100.00;64487.81;5034271;28;20379;-62
2021/10/18 03:27:28;;;;;;;9.63;6.28;;;;;;;-144.43;100.00;64487.81;5051682;28;20442;-62
2021/10/18 03:29:54;;;;;;;10.50;6.28;;;;;;;-144.43;100.00;64487.81;5051520;28;20045;-59
2021/10/18 03:32:19;;;;;;;9.95;5.85;;;;;;;-144.43;100.00;64487.81;5052161;28;20559;-62
2021/10/18 03:34:44;;;;;;;8.25;5.68;;;;;;;-144.43;100.00;64487.81;5034085;28;20021;-61
2021/10/18 03:37:09;;;;;;;9.23;6.07;;;;;;;-144.43;100.00;64487.81;5051587;28;20035;-60
2021/10/18 03:39:35;;;;;;;8.07;5.78;;;;;;;-144.43;100.00;64487.81;5033920;28;20024;-61
2021/10/18 03:42:04;;;;;;;11.63;6.50;;;;;;;-144.43;100.00;64487.81;5034027;28;20476;-59
2021/10/18 03:44:30;;;;;;;7.95;5.97;;;;;;;-144.43;100.00;64487.81;5034031;28;20055;-60
2021/10/18 03:46:55;;;;;;;9.98;6.18;;;;;;;-144.43;100.00;64487.81;5051535;28;20440;-59
2021/10/18 03:49:20;;;;;;;9.35;6.07;;;;;;;-144.43;100.00;64487.81;5045909;28;20076;-61
2021/10/18 03:51:55;;;;;;;11.05;6.80;;;;;;;-144.43;100.00;64487.81;5031534;28;20038;-60
2021/10/18 03:54:21;;;;;;;11.15;6.35;;;;;;;-144.43;100.00;64487.81;5039248;28;20377;-60
2021/10/18 03:56:46;;;;;;;10.48;6.57;;;;;;;-144.43;100.00;64487.81;5051323;28;20032;-59
2021/10/18 03:59:11;;;;;;;9.77;6.65;;;;;;;-144.43;100.00;64487.81;5017557;28;20028;-59
2021/10/18 04:01:40;;;;;;;9.18;6.07;;;;;;;-144.43;100.00;64487.81;5050561;28;20029;-58
2021/10/18 04:04:05;;;;;;;11.57;5.78;;;;;;;-144.43;100.00;64487.81;5051814;28;20032;-59
2021/10/18 04:06:33;;;;;;;8.60;5.90;;;;;;;-144.43;100.00;64487.81;5033688;28;20033;-61
2021/10/18 04:08:58;;;;;;;8.77;5.72;;;;;;;-144.43;100.00;64487.81;5050721;28;20021;-62
2021/10/18 04:11:23;;;;;;;8.50;5.88;;;;;;;-144.43;100.00;64487.81;5050448;28;20038;-60
2021/10/18 04:13:52;;;;;;;9.02;6.10;;;;;;;-144.43;100.00;64487.81;5051862;28;20028;-61
2021/10/18 04:16:17;;;;;;;8.48;5.22;;;;;;;-144.43;100.00;64487.81;5033785;28;20032;-61
2021/10/18 04:18:45;;;;;;;8.63;5.70;;;;;;;-144.43;100.00;64487.81;5034081;28;20020;-61
2021/10/18 04:21:13;;;;;;;9.13;6.03;;;;;;;-144.43;100.00;64487.81;5051462;28;20029;-62
2021/10/18 04:23:41;;;;;;;8.45;5.90;;;;;;;-144.43;100.00;64487.81;5051312;28;20027;-61
2021/10/18 04:26:06;;;;;;;8.20;5.43;;;;;;;-144.43;100.00;64487.81;5049834;28;20107;-61
2021/10/18 04:28:32;;;;;;;9.43;5.63;;;;;;;-144.43;100.00;64487.81;5033445;28;20455;-59
2021/10/18 04:30:57;;;;;;;10.10;6.50;;;;;;;-144.43;100.00;64487.81;5050374;28;20558;-60
2021/10/18 04:33:25;;;;;;;9.27;6.25;;;;;;;-144.43;100.00;64487.81;5055381;28;20047;-61
2021/10/18 04:35:54;;;;;;;7.57;5.30;;;;;;;-144.43;100.00;64487.81;5020557;28;20032;-61
2021/10/18 04:38:25;;;;;;;10.68;5.57;;;;;;;-144.43;100.00;64487.81;5037899;28;20391;-61
2021/10/18 04:40:51;;;;;;;10.55;5.75;;;;;;;-144.43;100.00;64487.81;5055144;28;20025;-60
2021/10/18 04:43:16;;;;;;;10.77;6.00;;;;;;;-144.43;100.00;64487.81;5054175;28;20079;-61
2021/10/18 04:45:41;;;;;;;8.02;5.45;;;;;;;-144.43;100.00;64487.81;5054920;28;20104;-61
2021/10/18 04:48:07;;;;;;;7.97;5.82;;;;;;;-144.43;100.00;64487.81;5054092;28;20028;-59
2021/10/18 04:50:38;;;;;;;7.47;5.05;;;;;;;-144.43;100.00;64487.81;5021263;28;20030;-61
2021/10/18 04:53:04;;;;;;;8.35;5.88;;;;;;;-144.43;100.00;64487.81;5035166;28;20029;-62
2021/10/18 04:55:29;;;;;;;7.85;5.63;;;;;;;-144.43;100.00;64487.81;5017254;28;20387;-61
2021/10/18 04:57:59;;;;;;;10.73;5.72;;;;;;;-144.43;100.00;64487.81;5033555;28;20059;-62
2021/10/18 05:00:27;;;;;;;9.98;5.40;;;;;;;-144.43;100.00;64487.81;5016512;28;20070;-63
2021/10/18 05:02:56;;;;;;;7.35;5.22;;;;;;;-144.43;100.00;64487.81;5033393;28;20078;-63
2021/10/18 05:05:23;;;;;;;7.85;5.65;;;;;;;-144.43;100.00;64487.81;5035868;28;20471;-62
2021/10/18 05:08:26;;;;;;;7.82;5.35;;;;;;;-144.43;100.00;64487.81;5035402;28;20032;-61
2021/10/18 05:10:51;;;;;;;;;;;;;;;-144.43;100.00;64487.81;4973520;28;20039;-63
2021/10/18 05:13:17;;;;;;;6.45;4.35;;;;;;;-144.43;100.00;64487.81;4973584;28;19925;-63
2021/10/18 05:15:48;;;;;;;7.55;3.90;;;;;;;-144.43;100.00;64487.81;4973083;28;20065;-59
2021/10/18 05:18:16;;;;;;;7.72;4.65;;;;;;;-144.43;100.00;64487.81;4957683;28;20043;-60
2021/10/18 05:20:44;;;;;;;6.38;4.68;;;;;;;-144.43;100.00;64487.81;4973223;28;20541;-61
2021/10/18 05:23:09;;;;;;;7.00;4.57;;;;;;;-144.43;100.00;64487.81;4972907;28;20059;-61
2021/10/18 05:25:44;;;;;;;6.65;4.68;;;;;;;-144.43;100.00;64487.81;4972385;28;20082;-61
2021/10/18 05:28:15;;;;;;;6.78;4.80;;;;;;;-144.43;100.00;64487.81;4972878;28;20035;-61
2021/10/18 05:30:40;;;;;;;7.03;4.38;;;;;;;-144.43;100.00;64487.81;4972754;28;20054;-59
2021/10/18 05:33:09;;;;;;;7.55;4.88;;;;;;;-144.43;100.00;64487.81;4972868;28;20179;-61
2021/10/18 05:35:34;;;;;;;7.40;5.28;;;;;;;-144.43;100.00;64487.81;4972188;28;20035;-60
2021/10/18 05:38:00;;;;;;;6.68;4.30;;;;;;;-144.43;100.00;64487.81;4972614;28;20053;-60
2021/10/18 05:40:25;;;;;;;6.85;4.60;;;;;;;-144.43;100.00;64487.81;4956758;28;20035;-60
2021/10/18 05:42:51;;;;;;;5.10;3.85;;;;;;;-144.43;100.00;64487.81;5019447;28;20112;-60
2021/10/18 05:45:17;;;;;;;7.05;4.35;;;;;;;-144.43;100.00;64487.81;5036059;28;20021;-60
2021/10/18 05:47:51;;;;;;;6.57;3.92;;;;;;;-144.43;100.00;64487.81;5035626;28;20047;-60
2021/10/18 05:50:16;;;;;;;7.00;4.25;;;;;;;-144.43;100.00;64487.81;5039407;28;20503;-61
2021/10/18 05:52:44;;;;;;;5.93;4.30;;;;;;;-144.43;100.00;64487.81;5040310;28;20032;-61
2021/10/18 05:55:12;;;;;;;5.82;4.07;;;;;;;-144.43;100.00;64487.81;5032448;28;20029;-61
2021/10/18 05:57:47;;;;;;;5.60;3.88;;;;;;;-144.43;100.00;64487.81;5023141;28;20061;-61
2021/10/18 06:00:13;;;;;;;5.45;3.80;;;;;;;-144.43;100.00;64487.81;5035830;28;20033;-61
2021/10/18 06:02:38;;;;;;;5.03;3.50;;;;;;;-144.43;100.00;64487.81;5035492;28;20032;-60
2021/10/18 06:05:04;;;;;;;5.35;3.80;;;;;;;-144.43;100.00;64487.81;5023494;28;20075;-59
2021/10/18 06:07:30;;;;;;;5.20;3.95;;;;;;;-144.43;100.00;64487.81;4992513;28;20099;-58
2021/10/18 06:09:55;;;;;;;5.05;4.07;;;;;;;-144.43;100.00;64487.81;5031380;28;20439;-61
2021/10/18 06:12:23;;;;;;;5.15;3.65;;;;;;;-144.43;100.00;64487.81;5029011;28;20035;-59
2021/10/18 06:14:48;;;;;;;4.88;3.83;;;;;;;-144.43;100.00;64487.81;5033076;28;20094;-59
2021/10/18 06:17:14;;;;;;;4.53;3.67;;;;;;;-144.43;100.00;64487.81;5031171;28;20029;-60
2021/10/18 06:19:39;;;;;;;4.20;3.47;;;;;;;-144.43;100.00;64487.81;5031525;28;20025;-61
2021/10/18 06:22:04;;;;;;;3.92;3.33;;;;;;;-144.43;100.00;64487.81;5028094;28;20036;-61
2021/10/18 06:24:30;;;;;;;5.25;4.05;;;;;;;-144.43;100.00;64487.81;5022460;28;20032;-60
2021/10/18 06:26:57;;;;;;;4.25;3.53;;;;;;;-144.43;100.00;64487.81;5033871;28;20083;-61
2021/10/18 06:29:23;;;;;;;4.45;3.60;;;;;;;-144.43;100.00;64487.81;5029567;28;20045;-61
2021/10/18 06:31:48;;;;;;;5.93;4.05;;;;;;;-144.43;100.00;64487.81;4995876;28;20674;-61
2021/10/18 06:34:13;;;;;;;5.43;3.95;;;;;;;-144.43;100.00;64487.81;5027904;28;20163;-60
2021/10/18 06:36:38;;;;;;;5.60;3.83;;;;;;;-144.43;100.00;64487.81;5048110;28;20025;-59
2021/10/18 06:39:04;;;;;;;5.38;3.97;;;;;;;-144.43;100.00;64487.81;5026330;23;20081;-52
2021/10/18 06:41:29;;;;;;;6.45;3.70;;;;;;;-144.43;100.00;64487.81;5050628;28;20021;-55
2021/10/18 06:43:55;;;;;;;4.93;3.85;;;;;;;-144.43;100.00;64487.81;5024519;28;20029;-51
2021/10/18 06:46:20;;;;;;;6.82;4.35;;;;;;;-144.43;100.00;64487.81;5031864;28;20372;-54
2021/10/18 06:48:45;;;;;;;5.40;3.75;;;;;;;-144.43;100.00;64487.81;5042946;28;20029;-62
2021/10/18 06:51:11;;;;;;;5.13;4.03;;;;;;;-144.43;100.00;64487.81;5051739;28;20025;-56
2021/10/18 06:53:37;;;;;;;5.07;3.85;;;;;;;-144.43;100.00;64487.81;5050399;28;20024;-53
2021/10/18 06:56:04;;;;;;;5.30;3.72;;;;;;;-144.43;100.00;64487.81;5052327;28;20594;-57
2021/10/18 06:58:30;;;;;;;6.05;4.05;;;;;;;-144.43;100.00;64487.81;5051864;28;20502;-56
2021/10/18 07:00:56;;;;;;;5.20;3.70;;;;;;;-144.43;100.00;64487.81;5050831;28;20025;-60
2021/10/18 07:03:21;;;;;;;4.97;3.67;;;;;;;-144.43;100.00;64487.81;5052092;28;20499;-55
2021/10/18 07:05:46;;;;;;;7.03;4.00;;;;;;;-144.43;100.00;64487.81;5052016;28;20098;-52
2021/10/18 07:08:12;;;;;;;4.97;3.80;;;;;;;-144.43;100.00;64487.81;5050588;28;20024;-50
2021/10/18 07:10:37;;;;;;;5.55;4.43;;;;;;;-144.43;100.00;64487.81;5034218;28;20041;-53
2021/10/18 07:13:05;;;;;;;6.75;4.40;;;;;;;-144.43;100.00;64487.81;5052158;28;20021;-54
2021/10/18 07:15:31;;;;;;;6.13;4.20;;;;;;;-144.43;100.00;64487.81;5050715;28;20024;-52
2021/10/18 07:17:56;;;;;;;6.32;4.47;;;;;;;-144.43;100.00;64487.81;5050278;28;20036;-54
2021/10/18 07:20:21;;;;;;;95.15;8.80;;;;;;;-144.43;100.00;64487.81;5051770;28;20458;-50
2021/10/18 07:22:50;;;;;;;79.75;9.90;;;;;;;-144.43;100.00;64487.81;5051599;28;20028;-53
2021/10/18 07:25:17;;;;;;;11.15;7.80;;;;;;;-144.43;100.00;64487.81;5051903;28;20021;-60
2021/10/18 07:27:43;;;;;;;21.80;11.52;;;;;;;-144.43;100.00;64487.81;5050544;28;20116;-61
2021/10/18 07:30:09;;;;;;;23.10;14.02;;;;;;;-144.43;100.00;64487.81;5051484;28;20096;-60
2021/10/18 07:32:36;;;;;;;26.63;16.95;;;;;;;-144.43;100.00;64487.81;5050378;28;20033;-57
2021/10/18 07:35:02;;;;;;;27.58;17.65;;;;;;;-144.43;100.00;64487.81;5050402;28;20108;-56
2021/10/18 07:37:30;;;;;;;20.98;14.52;;;;;;;-144.43;100.00;64487.81;5054026;28;20060;-58
2021/10/18 07:39:56;;;;;;;21.77;12.77;;;;;;;-144.43;100.00;64487.81;5071092;28;20020;-61
2021/10/18 07:42:21;;;;;;;15.57;11.00;;;;;;;-144.43;100.00;64487.81;5071578;28;20078;-59
2021/10/18 07:44:49;;;;;;;13.25;9.48;;;;;;;-144.43;100.00;64487.81;5071223;28;20482;-59
2021/10/18 07:47:14;;;;;;;11.15;8.65;;;;;;;-144.43;100.00;64487.81;5071398;28;20551;-60
2021/10/18 07:49:42;;;;;;;12.10;8.50;;;;;;;-144.43;100.00;64487.81;5070966;28;20088;-60
2021/10/18 07:52:11;;;;;;;10.77;7.60;;;;;;;-144.43;100.00;64487.81;5071093;28;20482;-56
2021/10/18 07:54:39;;;;;;;10.18;7.88;;;;;;;-144.43;100.00;64487.81;5037401;28;20028;-59
2021/10/18 07:57:04;;;;;;;10.32;8.07;;;;;;;-144.43;100.00;64487.81;5053379;28;20025;-61
2021/10/18 07:59:30;;;;;;;11.85;8.85;;;;;;;-144.43;100.00;64487.81;5052771;28;20021;-57
2021/10/18 08:01:58;;;;;;;14.65;10.65;;;;;;;-144.43;100.00;64487.81;5053123;28;20032;-59
2021/10/18 08:04:23;;;;;;;19.55;12.75;;;;;;;-144.43;100.00;64487.81;5070555;28;20028;-63
2021/10/18 08:06:48;;;;;;;19.60;13.82;;;;;;;-144.43;100.00;64487.81;5070502;28;20413;-58
2021/10/18 08:09:14;;;;;;;19.95;13.32;;;;;;;-144.43;100.00;64487.81;5070584;28;20037;-58
2021/10/18 08:11:39;;;;;;;19.52;13.57;;;;;;;-144.43;100.00;64487.81;5070956;28;20138;-60
2021/10/18 08:14:05;;;;;;;18.90;14.00;;;;;;;-144.43;100.00;64487.81;5053048;28;20025;-52
2021/10/18 08:16:30;;;;;;;17.42;13.02;;;;;;;-144.43;100.00;64487.81;5053114;28;20028;-56
2021/10/18 08:18:56;;;;;;;14.10;11.10;;;;;;;-144.43;100.00;64487.81;5070702;28;20020;-55
2021/10/18 08:21:22;;;;;;;12.70;10.35;;;;;;;-144.43;100.00;64487.81;5070147;28;20020;-60
2021/10/18 08:23:48;;;;;;;12.82;9.18;;;;;;;-144.43;100.00;64487.81;5053312;28;20082;-58
2021/10/18 08:26:14;;;;;;;13.10;7.43;;;;;;;-144.43;100.00;64487.81;5071344;28;20025;-58
2021/10/18 08:28:39;;;;;;;9.65;5.68;;;;;;;-144.43;100.00;64487.81;5070324;28;20780;-56
2021/10/18 08:31:04;;;;;;;8.43;5.43;;;;;;;8.38;100.00;95761.13;5052786;28;20032;-57
2021/10/18 08:33:30;;;;;;;5.55;4.40;;;;;;;8.70;100.00;95782.91;5070870;28;20067;-58
2021/10/18 08:35:55;;;;;;;6.68;4.65;;;;;;;8.99;100.00;95791.75;5036325;28;20044;-59
2021/10/18 08:38:46;;;;;;;6.43;3.97;;;;;;;9.37;100.00;95803.72;5035984;28;20514;-58
2021/10/18 08:46:06;;;;;;;5.18;4.00;;;;;;;-144.43;100.00;64487.81;5060878;28;20131;-56
2021/10/18 08:48:32;;;;;;;5.50;4.32;;;;;;;10.63;100.00;95798.78;5055696;28;20502;-59
2021/10/18 08:50:58;;;;;;;6.68;3.97;;;;;;;10.87;100.00;95802.88;5061542;28;20043;-59
2021/10/18 08:53:24;;;;;;;7.95;4.45;;;;;;;11.09;100.00;95800.22;5034159;28;20016;-63
2021/10/18 08:55:49;;;;;;;9.13;4.90;;;;;;;11.30;100.00;95806.63;5058224;28;20024;-59
2021/10/18 08:58:14;;;;;;;7.78;5.10;;;;;;;11.32;100.00;95810.66;5064884;28;20025;-61
2021/10/18 09:00:48;;;;;;;8.43;4.97;;;;;;;11.44;100.00;95801.66;5070850;28;20437;-60
2021/10/18 09:03:20;;;;;;;6.20;4.78;;;;;;;11.40;100.00;95792.50;5070769;28;20031;-60
2021/10/18 09:05:46;;;;;;;5.70;4.90;;;;;;;11.49;100.00;95791.78;5070880;28;20383;-59
2021/10/18 09:08:39;;;;;;;7.97;5.07;;;;;;;11.36;100.00;95791.38;5070109;28;20063;-56
2021/10/18 09:11:13;;;;;;;7.05;5.00;;;;;;;11.31;100.00;95781.41;5063963;28;20037;-57
2021/10/18 09:13:50;;;;;;;7.38;4.57;;;;;;;11.51;100.00;95772.78;5052827;28;20036;-61
2021/10/18 09:16:36;;;;;;;7.05;4.40;;;;;;;11.66;100.00;95762.16;5070617;28;20032;-61
2021/10/18 09:19:10;;;;;;;7.43;4.70;;;;;;;11.97;100.00;95744.47;5055824;28;20078;-60
2021/10/18 09:21:38;;;;;;;7.47;5.00;;;;;;;12.14;100.00;95728.19;5056467;28;20032;-60
2021/10/18 09:24:05;;;;;;;7.50;4.68;;;;;;;12.18;100.00;95705.97;5074251;28;20029;-61
2021/10/18 09:26:32;;;;;;;6.25;4.85;;;;;;;12.38;100.00;95686.47;5074209;28;20016;-59
2021/10/18 09:29:10;;;;;;;8.02;5.00;;;;;;;12.66;100.00;95641.41;5055521;28;20028;-58
2021/10/18 09:31:36;;;;;;;6.55;4.80;;;;;;;12.94;100.00;95594.47;5056247;28;20582;-58
2021/10/18 09:34:11;;;;;;;6.18;4.25;;;;;;;13.29;100.00;95527.25;5073733;28;20032;-52
2021/10/18 09:36:37;;;;;;;5.78;4.38;;;;;;;13.51;100.00;95466.94;5073833;28;20487;-55
2021/10/18 09:39:09;;;;;;;7.65;4.53;;;;;;;13.76;100.00;95394.16;5055508;28;20098;-57
2021/10/18 09:41:34;;;;;;;7.15;4.55;;;;;;;14.03;100.00;95345.28;5061767;28;20131;-58
2021/10/18 09:44:09;;;;;;;6.43;4.82;;;;;;;13.97;100.00;95332.91;5055873;28;20547;-56
2021/10/18 09:46:38;;;;;;;6.40;4.75;;;;;;;14.17;100.00;95338.16;5073700;28;20727;-59
2021/10/18 10:53:54;;;;;;;6.80;5.20;;;;;;;-144.43;100.00;64487.81;5072683;28;20104;-62
2021/10/18 10:56:44;;;;;;;7.65;5.15;;;;;;;-144.43;100.00;64487.81;5071893;28;20041;-59
2021/10/18 10:59:23;;;;;;;6.18;5.05;;;;;;;-144.43;100.00;64487.81;5071636;28;20107;-57
2021/10/18 11:02:11;;;;;;;6.93;5.38;;;;;;;-144.43;100.00;64487.81;5072513;28;20028;-57
2021/10/18 11:04:39;;;;;;;8.10;5.68;;;;;;;-144.43;100.00;64487.81;5072179;28;20079;-60
2021/10/18 11:07:35;;;;;;;6.75;5.50;;;;;;;-144.43;100.00;64487.81;5046384;28;20878;-58
2021/10/18 11:10:05;;;;;;;7.00;5.30;;;;;;;-144.43;100.00;64487.81;5042214;28;20549;-62
2021/10/18 11:12:35;;;;;;;7.93;5.72;;;;;;;-144.43;100.00;64487.81;5037226;28;20016;-59
2021/10/18 11:15:04;;;;;;;9.50;6.00;;;;;;;-144.43;100.00;64487.81;5071268;28;20028;-64
2021/10/18 11:17:32;;;;;;;6.07;4.90;;;;;;;-144.43;100.00;64487.81;5030610;28;20506;-59
2021/10/18 11:20:01;;;;;;;6.78;5.30;;;;;;;-144.43;100.00;64487.81;5041864;28;20486;-55
2021/10/18 11:22:34;;;;;;;6.20;5.00;;;;;;;-144.43;100.00;64487.81;5067470;28;20492;-61
2021/10/18 11:25:00;;;;;;;6.95;5.30;;;;;;;-144.43;100.00;64487.81;5071777;28;20025;-61
2021/10/18 11:27:31;;;;;;;7.05;5.80;;;;;;;-144.43;100.00;64487.81;5071130;28;20028;-59
2021/10/18 11:30:00;;;;;;;6.88;5.78;;;;;;;-144.43;100.00;64487.81;5053409;28;20016;-59
2021/10/18 11:32:26;;;;;;;6.72;5.10;;;;;;;-144.43;100.00;64487.81;5059967;28;20029;-60
2021/10/18 11:35:11;;;;;;;6.97;5.28;;;;;;;-144.43;100.00;64487.81;5053984;28;20519;-60
2021/10/18 11:38:06;;;;;;;6.00;5.38;;;;;;;-144.43;100.00;64487.81;5053173;28;20119;-58
2021/10/18 11:40:44;;;;;;;5.93;4.93;;;;;;;-144.43;100.00;64487.81;5071252;28;20502;-59
2021/10/18 11:43:21;;;;;;;6.00;4.78;;;;;;;-144.43;100.00;64487.81;5053543;28;20107;-56
2021/10/18 11:45:49;;;;;;;5.85;4.88;;;;;;;-144.43;100.00;64487.81;5043197;28;20052;-61
2021/10/18 11:48:20;;;;;;;6.63;4.38;;;;;;;-144.43;100.00;64487.81;5053427;28;20028;-63
2021/10/18 11:50:53;;;;;;;5.85;4.57;;;;;;;-144.43;100.00;64487.81;5070921;28;20032;-61
2021/10/18 11:53:19;;;;;;;;;;;;;;;-144.43;100.00;64487.81;5037850;28;20119;-59
2021/10/18 11:55:49;;;;;;;7.35;4.63;;;;;;;-144.43;100.00;64487.81;5071501;28;19940;-62
2021/10/18 11:58:24;;;;;;;4.88;4.20;;;;;;;-144.43;100.00;64487.81;5070964;28;20029;-62
2021/10/18 12:01:07;;;;;;;4.30;3.90;;;;;;;-144.43;100.00;64487.81;5071327;28;20025;-60
2021/10/18 12:03:34;;;;;;;6.13;5.13;;;;;;;19.32;100.00;96085.22;5036961;28;20396;-58
2021/10/18 12:06:05;;;;;;;7.07;4.85;;;;;;;19.22;100.00;96085.41;5071435;28;20052;-56
2021/10/18 12:08:52;;;;;;;6.68;4.57;;;;;;;19.41;100.00;96086.16;5036250;28;20024;-59
2021/10/18 12:11:18;;;;;;;6.38;4.70;;;;;;;19.61;100.00;96106.78;5071038;28;20038;-59
2021/10/18 12:13:43;;;;;;;5.55;4.63;;;;;;;19.65;100.00;96095.03;5071003;28;20103;-61
2021/10/18 12:16:14;;;;;;;6.88;4.50;;;;;;;19.63;100.00;96066.53;5036675;28;20020;-61
2021/10/18 12:18:42;;;;;;;6.15;4.80;;;;;;;19.66;100.00;96060.53;5070855;28;20020;-57
2021/10/18 12:21:17;;;;;;;5.72;5.15;;;;;;;19.69;100.00;96011.78;5071138;28;20032;-62
2021/10/18 12:23:48;;;;;;;6.00;5.18;;;;;;;19.68;100.00;96003.94;5071540;28;20024;-63